sensor_id;sensor_type;location;lat;lon;timestamp;P1;durP1;ratioP1;P2;durP2;ratioP2
22705;SDS011;11520;51.198;4.468;2023-01-26T00:01:12;124.13;;;42.00;;
22705;SDS011;11520;51.198;4.468;2023-01-26T00:03:42;120.93;;;42.53;;
22705;SDS011;11520;51.198;4.468;2023-01-26T00:06:09;121.63;;;42.17;;
22705;SDS011;11520;51.198;4.468;2023-01-26T00:08:43;119.50;;;40.22;;
22705;SDS011;11520;51.198;4.468;2023-01-26T00:11:13;115.60;;;41.45;;
22705;SDS011;11520;51.198;4.468;2023-01-26T00:13:41;113.05;;;38.38;;
22705;SDS011;11520;51.198;4.468;2023-01-26T00:16:07;113.45;;;40.42;;
22705;SDS011;11520;51.198;4.468;2023-01-26T00:18:35;127.68;;;41.97;;
22705;SDS011;11520;51.198;4.468;2023-01-26T00:21:03;118.40;;;41.50;;
22705;SDS011;11520;51.198;4.468;2023-01-26T00:23:30;119.18;;;39.60;;
22705;SDS011;11520;51.198;4.468;2023-01-26T00:25:57;115.32;;;41.67;;
22705;SDS011;11520;51.198;4.468;2023-01-26T00:28:24;106.10;;;39.22;;
22705;SDS011;11520;51.198;4.468;2023-01-26T00:30:49;117.25;;;40.42;;
22705;SDS011;11520;51.198;4.468;2023-01-26T00:33:15;113.00;;;38.33;;
22705;SDS011;11520;51.198;4.468;2023-01-26T00:35:41;104.95;;;37.55;;
22705;SDS011;11520;51.198;4.468;2023-01-26T00:38:10;105.43;;;38.28;;
22705;SDS011;11520;51.198;4.468;2023-01-26T00:40:38;93.38;;;34.17;;
22705;SDS011;11520;51.198;4.468;2023-01-26T00:43:06;104.95;;;37.53;;
22705;SDS011;11520;51.198;4.468;2023-01-26T00:45:33;103.90;;;35.47;;
22705;SDS011;11520;51.198;4.468;2023-01-26T00:47:58;98.32;;;34.83;;
22705;SDS011;11520;51.198;4.468;2023-01-26T00:50:24;89.53;;;33.10;;
22705;SDS011;11520;51.198;4.468;2023-01-26T00:52:52;101.43;;;36.45;;
22705;SDS011;11520;51.198;4.468;2023-01-26T00:55:19;93.60;;;33.20;;
22705;SDS011;11520;51.198;4.468;2023-01-26T00:57:45;95.88;;;33.35;;
22705;SDS011;11520;51.198;4.468;2023-01-26T01:00:11;103.13;;;35.33;;
22705;SDS011;11520;51.198;4.468;2023-01-26T01:02:42;97.38;;;33.58;;
22705;SDS011;11520;51.198;4.468;2023-01-26T01:05:08;99.65;;;34.65;;
22705;SDS011;11520;51.198;4.468;2023-01-26T01:07:35;98.50;;;35.17;;
22705;SDS011;11520;51.198;4.468;2023-01-26T01:10:00;93.85;;;32.60;;
22705;SDS011;11520;51.198;4.468;2023-01-26T01:12:26;89.70;;;31.15;;
22705;SDS011;11520;51.198;4.468;2023-01-26T01:14:52;94.15;;;32.55;;
22705;SDS011;11520;51.198;4.468;2023-01-26T01:17:19;89.00;;;33.33;;
22705;SDS011;11520;51.198;4.468;2023-01-26T01:19:44;105.47;;;35.38;;
22705;SDS011;11520;51.198;4.468;2023-01-26T01:22:13;110.93;;;37.22;;
22705;SDS011;11520;51.198;4.468;2023-01-26T01:24:39;120.68;;;38.30;;
22705;SDS011;11520;51.198;4.468;2023-01-26T01:27:05;110.35;;;37.22;;
22705;SDS011;11520;51.198;4.468;2023-01-26T01:29:33;111.00;;;37.72;;
22705;SDS011;11520;51.198;4.468;2023-01-26T01:31:58;107.38;;;36.70;;
22705;SDS011;11520;51.198;4.468;2023-01-26T01:34:24;107.97;;;37.50;;
22705;SDS011;11520;51.198;4.468;2023-01-26T01:36:50;102.65;;;35.72;;
22705;SDS011;11520;51.198;4.468;2023-01-26T01:39:16;105.68;;;36.72;;
22705;SDS011;11520;51.198;4.468;2023-01-26T01:41:43;103.15;;;34.85;;
22705;SDS011;11520;51.198;4.468;2023-01-26T01:44:12;103.75;;;35.75;;
22705;SDS011;11520;51.198;4.468;2023-01-26T01:49:31;101.43;;;35.30;;
22705;SDS011;11520;51.198;4.468;2023-01-26T01:52:02;106.63;;;36.55;;
22705;SDS011;11520;51.198;4.468;2023-01-26T01:54:43;103.10;;;36.00;;
22705;SDS011;11520;51.198;4.468;2023-01-26T01:57:19;111.82;;;37.08;;
22705;SDS011;11520;51.198;4.468;2023-01-26T01:59:54;108.80;;;36.58;;
22705;SDS011;11520;51.198;4.468;2023-01-26T02:02:25;108.70;;;36.53;;
22705;SDS011;11520;51.198;4.468;2023-01-26T02:04:54;112.13;;;37.45;;
22705;SDS011;11520;51.198;4.468;2023-01-26T02:07:28;105.13;;;36.47;;
22705;SDS011;11520;51.198;4.468;2023-01-26T02:09:56;106.30;;;35.85;;
22705;SDS011;11520;51.198;4.468;2023-01-26T02:12:42;101.28;;;35.17;;
22705;SDS011;11520;51.198;4.468;2023-01-26T02:15:09;104.55;;;34.15;;
22705;SDS011;11520;51.198;4.468;2023-01-26T02:17:37;105.25;;;35.47;;
22705;SDS011;11520;51.198;4.468;2023-01-26T02:20:10;101.15;;;34.10;;
22705;SDS011;11520;51.198;4.468;2023-01-26T02:28:17;99.10;;;33.80;;
22705;SDS011;11520;51.198;4.468;2023-01-26T02:30:47;97.40;;;32.80;;
22705;SDS011;11520;51.198;4.468;2023-01-26T02:33:24;101.53;;;33.92;;
22705;SDS011;11520;51.198;4.468;2023-01-26T02:35:51;98.13;;;33.38;;
22705;SDS011;11520;51.198;4.468;2023-01-26T02:38:18;92.28;;;31.48;;
22705;SDS011;11520;51.198;4.468;2023-01-26T02:40:47;93.13;;;32.00;;
22705;SDS011;11520;51.198;4.468;2023-01-26T02:43:38;98.45;;;32.15;;
22705;SDS011;11520;51.198;4.468;2023-01-26T02:46:04;94.03;;;32.33;;
22705;SDS011;11520;51.198;4.468;2023-01-26T02:48:36;95.68;;;31.63;;
22705;SDS011;11520;51.198;4.468;2023-01-26T02:51:20;90.97;;;31.88;;
22705;SDS011;11520;51.198;4.468;2023-01-26T02:53:46;93.57;;;33.92;;
22705;SDS011;11520;51.198;4.468;2023-01-26T02:56:12;99.35;;;32.63;;
22705;SDS011;11520;51.198;4.468;2023-01-26T02:58:37;95.40;;;31.92;;
22705;SDS011;11520;51.198;4.468;2023-01-26T03:01:03;106.45;;;34.40;;
22705;SDS011;11520;51.198;4.468;2023-01-26T03:03:29;102.32;;;33.58;;
22705;SDS011;11520;51.198;4.468;2023-01-26T03:06:06;93.47;;;32.33;;
22705;SDS011;11520;51.198;4.468;2023-01-26T03:11:03;101.65;;;32.58;;
22705;SDS011;11520;51.198;4.468;2023-01-26T03:13:29;91.50;;;31.50;;
22705;SDS011;11520;51.198;4.468;2023-01-26T03:15:57;89.70;;;30.77;;
22705;SDS011;11520;51.198;4.468;2023-01-26T03:18:30;90.72;;;30.30;;
22705;SDS011;11520;51.198;4.468;2023-01-26T03:21:16;89.82;;;29.60;;
22705;SDS011;11520;51.198;4.468;2023-01-26T03:24:01;88.80;;;28.35;;
22705;SDS011;11520;51.198;4.468;2023-01-26T03:26:46;80.20;;;28.75;;
22705;SDS011;11520;51.198;4.468;2023-01-26T03:29:31;83.20;;;28.70;;
22705;SDS011;11520;51.198;4.468;2023-01-26T03:31:59;85.00;;;29.60;;
22705;SDS011;11520;51.198;4.468;2023-01-26T03:34:25;77.40;;;28.23;;
22705;SDS011;11520;51.198;4.468;2023-01-26T03:36:51;86.13;;;28.98;;
22705;SDS011;11520;51.198;4.468;2023-01-26T03:39:16;86.10;;;29.02;;
22705;SDS011;11520;51.198;4.468;2023-01-26T03:42:01;85.80;;;29.55;;
22705;SDS011;11520;51.198;4.468;2023-01-26T03:44:45;88.85;;;29.27;;
22705;SDS011;11520;51.198;4.468;2023-01-26T03:47:30;85.32;;;28.52;;
22705;SDS011;11520;51.198;4.468;2023-01-26T03:50:15;87.30;;;29.73;;
22705;SDS011;11520;51.198;4.468;2023-01-26T03:53:00;84.72;;;28.30;;
22705;SDS011;11520;51.198;4.468;2023-01-26T03:55:44;76.10;;;27.88;;
22705;SDS011;11520;51.198;4.468;2023-01-26T03:58:29;80.22;;;25.88;;
22705;SDS011;11520;51.198;4.468;2023-01-26T04:00:57;75.57;;;26.40;;
22705;SDS011;11520;51.198;4.468;2023-01-26T04:03:23;81.65;;;27.10;;
22705;SDS011;11520;51.198;4.468;2023-01-26T04:06:09;73.55;;;25.73;;
22705;SDS011;11520;51.198;4.468;2023-01-26T04:08:53;69.80;;;25.17;;
22705;SDS011;11520;51.198;4.468;2023-01-26T04:11:19;72.60;;;24.63;;
22705;SDS011;11520;51.198;4.468;2023-01-26T04:13:45;67.90;;;25.10;;
22705;SDS011;11520;51.198;4.468;2023-01-26T04:16:30;74.15;;;25.13;;
22705;SDS011;11520;51.198;4.468;2023-01-26T04:19:14;63.38;;;22.95;;
22705;SDS011;11520;51.198;4.468;2023-01-26T04:21:58;62.55;;;22.55;;
22705;SDS011;11520;51.198;4.468;2023-01-26T04:24:24;56.85;;;21.23;;
22705;SDS011;11520;51.198;4.468;2023-01-26T04:26:50;61.08;;;22.20;;
22705;SDS011;11520;51.198;4.468;2023-01-26T04:29:16;58.45;;;22.08;;
22705;SDS011;11520;51.198;4.468;2023-01-26T04:31:41;59.20;;;21.65;;
22705;SDS011;11520;51.198;4.468;2023-01-26T04:34:11;54.13;;;20.60;;
22705;SDS011;11520;51.198;4.468;2023-01-26T04:36:39;58.60;;;21.42;;
22705;SDS011;11520;51.198;4.468;2023-01-26T04:39:05;56.70;;;21.23;;
22705;SDS011;11520;51.198;4.468;2023-01-26T04:41:31;54.13;;;18.55;;
22705;SDS011;11520;51.198;4.468;2023-01-26T04:43:59;50.83;;;18.77;;
22705;SDS011;11520;51.198;4.468;2023-01-26T04:46:24;56.60;;;19.38;;
22705;SDS011;11520;51.198;4.468;2023-01-26T04:48:50;49.15;;;18.50;;
22705;SDS011;11520;51.198;4.468;2023-01-26T04:51:18;46.63;;;17.17;;
22705;SDS011;11520;51.198;4.468;2023-01-26T04:53:45;48.17;;;16.48;;
22705;SDS011;11520;51.198;4.468;2023-01-26T04:56:20;46.05;;;16.65;;
22705;SDS011;11520;51.198;4.468;2023-01-26T04:58:52;48.25;;;16.98;;
22705;SDS011;11520;51.198;4.468;2023-01-26T05:01:19;49.33;;;17.38;;
22705;SDS011;11520;51.198;4.468;2023-01-26T05:03:45;49.00;;;17.75;;
22705;SDS011;11520;51.198;4.468;2023-01-26T05:06:12;43.88;;;16.42;;
22705;SDS011;11520;51.198;4.468;2023-01-26T05:08:39;50.92;;;16.80;;
22705;SDS011;11520;51.198;4.468;2023-01-26T05:11:04;42.55;;;16.90;;
22705;SDS011;11520;51.198;4.468;2023-01-26T05:13:31;44.00;;;16.80;;
22705;SDS011;11520;51.198;4.468;2023-01-26T05:15:59;44.88;;;16.33;;
22705;SDS011;11520;51.198;4.468;2023-01-26T05:18:27;39.95;;;16.35;;
22705;SDS011;11520;51.198;4.468;2023-01-26T05:20:55;44.50;;;16.85;;
22705;SDS011;11520;51.198;4.468;2023-01-26T05:23:22;47.38;;;18.00;;
22705;SDS011;11520;51.198;4.468;2023-01-26T05:25:49;48.90;;;17.35;;
22705;SDS011;11520;51.198;4.468;2023-01-26T05:28:14;45.55;;;17.20;;
22705;SDS011;11520;51.198;4.468;2023-01-26T05:30:40;49.70;;;17.58;;
22705;SDS011;11520;51.198;4.468;2023-01-26T05:33:06;45.08;;;17.55;;
22705;SDS011;11520;51.198;4.468;2023-01-26T05:35:34;49.17;;;18.38;;
22705;SDS011;11520;51.198;4.468;2023-01-26T05:38:01;48.95;;;17.65;;
22705;SDS011;11520;51.198;4.468;2023-01-26T05:40:29;40.63;;;16.33;;
22705;SDS011;11520;51.198;4.468;2023-01-26T05:42:56;43.78;;;16.10;;
22705;SDS011;11520;51.198;4.468;2023-01-26T05:45:22;46.45;;;17.80;;
22705;SDS011;11520;51.198;4.468;2023-01-26T05:47:48;42.28;;;15.27;;
22705;SDS011;11520;51.198;4.468;2023-01-26T05:50:15;44.05;;;17.50;;
22705;SDS011;11520;51.198;4.468;2023-01-26T05:52:41;39.85;;;16.50;;
22705;SDS011;11520;51.198;4.468;2023-01-26T05:55:10;40.67;;;16.23;;
22705;SDS011;11520;51.198;4.468;2023-01-26T05:57:36;44.35;;;17.20;;
22705;SDS011;11520;51.198;4.468;2023-01-26T06:00:05;46.60;;;16.85;;
22705;SDS011;11520;51.198;4.468;2023-01-26T06:02:34;43.50;;;16.48;;
22705;SDS011;11520;51.198;4.468;2023-01-26T06:05:00;46.38;;;16.42;;
22705;SDS011;11520;51.198;4.468;2023-01-26T06:09:54;46.47;;;17.42;;
22705;SDS011;11520;51.198;4.468;2023-01-26T06:14:48;38.72;;;16.92;;
22705;SDS011;11520;51.198;4.468;2023-01-26T06:17:15;38.13;;;15.88;;
22705;SDS011;11520;51.198;4.468;2023-01-26T06:19:42;42.80;;;15.75;;
22705;SDS011;11520;51.198;4.468;2023-01-26T06:22:09;37.95;;;16.35;;
22705;SDS011;11520;51.198;4.468;2023-01-26T06:24:37;39.00;;;16.70;;
22705;SDS011;11520;51.198;4.468;2023-01-26T06:27:05;43.58;;;16.65;;
22705;SDS011;11520;51.198;4.468;2023-01-26T06:29:36;36.88;;;15.18;;
22705;SDS011;11520;51.198;4.468;2023-01-26T06:32:02;38.53;;;17.10;;
22705;SDS011;11520;51.198;4.468;2023-01-26T06:34:29;39.17;;;16.05;;
22705;SDS011;11520;51.198;4.468;2023-01-26T06:36:54;36.10;;;14.82;;
22705;SDS011;11520;51.198;4.468;2023-01-26T06:39:22;38.80;;;15.30;;
22705;SDS011;11520;51.198;4.468;2023-01-26T06:41:50;42.05;;;15.80;;
22705;SDS011;11520;51.198;4.468;2023-01-26T06:44:17;38.80;;;15.38;;
22705;SDS011;11520;51.198;4.468;2023-01-26T06:46:42;36.78;;;15.15;;
22705;SDS011;11520;51.198;4.468;2023-01-26T06:49:09;35.80;;;15.70;;
22705;SDS011;11520;51.198;4.468;2023-01-26T06:52:20;40.45;;;16.25;;
22705;SDS011;11520;51.198;4.468;2023-01-26T06:54:43;38.85;;;16.48;;
22705;SDS011;11520;51.198;4.468;2023-01-26T06:57:08;43.10;;;16.77;;
22705;SDS011;11520;51.198;4.468;2023-01-26T06:59:34;39.13;;;16.30;;
22705;SDS011;11520;51.198;4.468;2023-01-26T07:02:00;46.58;;;16.52;;
22705;SDS011;11520;51.198;4.468;2023-01-26T07:04:26;45.63;;;18.10;;
22705;SDS011;11520;51.198;4.468;2023-01-26T07:06:52;46.85;;;17.98;;
22705;SDS011;11520;51.198;4.468;2023-01-26T07:09:17;49.65;;;18.98;;
22705;SDS011;11520;51.198;4.468;2023-01-26T07:11:43;51.25;;;20.08;;
22705;SDS011;11520;51.198;4.468;2023-01-26T07:14:09;43.53;;;17.25;;
22705;SDS011;11520;51.198;4.468;2023-01-26T07:16:36;46.78;;;18.85;;
22705;SDS011;11520;51.198;4.468;2023-01-26T07:19:03;45.65;;;19.13;;
22705;SDS011;11520;51.198;4.468;2023-01-26T07:21:28;45.65;;;18.58;;
22705;SDS011;11520;51.198;4.468;2023-01-26T07:23:54;51.72;;;19.40;;
22705;SDS011;11520;51.198;4.468;2023-01-26T07:28:50;50.65;;;19.75;;
22705;SDS011;11520;51.198;4.468;2023-01-26T07:33:46;47.28;;;19.02;;
22705;SDS011;11520;51.198;4.468;2023-01-26T07:36:11;50.85;;;21.10;;
22705;SDS011;11520;51.198;4.468;2023-01-26T07:38:37;49.90;;;18.65;;
22705;SDS011;11520;51.198;4.468;2023-01-26T07:41:03;50.67;;;19.00;;
22705;SDS011;11520;51.198;4.468;2023-01-26T07:43:31;46.47;;;18.40;;
22705;SDS011;11520;51.198;4.468;2023-01-26T07:45:58;47.22;;;18.33;;
22705;SDS011;11520;51.198;4.468;2023-01-26T07:48:25;44.58;;;17.63;;
22705;SDS011;11520;51.198;4.468;2023-01-26T07:50:53;44.10;;;17.73;;
22705;SDS011;11520;51.198;4.468;2023-01-26T07:53:22;53.75;;;19.75;;
22705;SDS011;11520;51.198;4.468;2023-01-26T07:55:50;54.85;;;18.75;;
22705;SDS011;11520;51.198;4.468;2023-01-26T07:58:16;55.67;;;19.48;;
22705;SDS011;11520;51.198;4.468;2023-01-26T08:00:45;59.28;;;23.13;;
22705;SDS011;11520;51.198;4.468;2023-01-26T08:03:12;55.85;;;20.63;;
22705;SDS011;11520;51.198;4.468;2023-01-26T08:05:39;51.88;;;20.15;;
22705;SDS011;11520;51.198;4.468;2023-01-26T08:08:09;44.90;;;19.00;;
22705;SDS011;11520;51.198;4.468;2023-01-26T08:10:37;50.28;;;19.52;;
22705;SDS011;11520;51.198;4.468;2023-01-26T08:13:07;50.22;;;19.52;;
22705;SDS011;11520;51.198;4.468;2023-01-26T08:15:37;50.95;;;19.08;;
22705;SDS011;11520;51.198;4.468;2023-01-26T08:18:02;46.97;;;18.70;;
22705;SDS011;11520;51.198;4.468;2023-01-26T08:20:35;50.22;;;19.77;;
22705;SDS011;11520;51.198;4.468;2023-01-26T08:23:01;46.15;;;19.17;;
22705;SDS011;11520;51.198;4.468;2023-01-26T08:25:27;43.22;;;18.90;;
22705;SDS011;11520;51.198;4.468;2023-01-26T08:27:53;41.25;;;18.10;;
22705;SDS011;11520;51.198;4.468;2023-01-26T08:30:19;47.53;;;18.13;;
22705;SDS011;11520;51.198;4.468;2023-01-26T08:32:45;49.80;;;19.88;;
22705;SDS011;11520;51.198;4.468;2023-01-26T08:35:11;42.75;;;17.30;;
22705;SDS011;11520;51.198;4.468;2023-01-26T08:37:36;46.63;;;18.08;;
22705;SDS011;11520;51.198;4.468;2023-01-26T08:40:02;41.25;;;17.35;;
22705;SDS011;11520;51.198;4.468;2023-01-26T08:42:29;44.95;;;18.75;;
22705;SDS011;11520;51.198;4.468;2023-01-26T08:44:56;42.17;;;17.25;;
22705;SDS011;11520;51.198;4.468;2023-01-26T08:47:23;48.85;;;18.88;;
22705;SDS011;11520;51.198;4.468;2023-01-26T08:49:52;42.17;;;18.50;;
22705;SDS011;11520;51.198;4.468;2023-01-26T08:52:20;42.78;;;17.05;;
22705;SDS011;11520;51.198;4.468;2023-01-26T08:54:46;42.47;;;18.40;;
22705;SDS011;11520;51.198;4.468;2023-01-26T08:57:14;45.20;;;18.45;;
22705;SDS011;11520;51.198;4.468;2023-01-26T08:59:40;42.40;;;18.05;;
22705;SDS011;11520;51.198;4.468;2023-01-26T09:02:09;43.65;;;16.77;;
22705;SDS011;11520;51.198;4.468;2023-01-26T09:04:35;45.58;;;18.33;;
22705;SDS011;11520;51.198;4.468;2023-01-26T09:07:02;46.58;;;19.40;;
22705;SDS011;11520;51.198;4.468;2023-01-26T09:09:28;49.83;;;19.00;;
22705;SDS011;11520;51.198;4.468;2023-01-26T09:11:54;51.00;;;19.17;;
22705;SDS011;11520;51.198;4.468;2023-01-26T09:14:20;48.90;;;18.73;;
22705;SDS011;11520;51.198;4.468;2023-01-26T09:16:47;54.20;;;19.55;;
22705;SDS011;11520;51.198;4.468;2023-01-26T09:19:13;57.83;;;20.13;;
22705;SDS011;11520;51.198;4.468;2023-01-26T09:21:38;54.97;;;19.95;;
22705;SDS011;11520;51.198;4.468;2023-01-26T09:24:04;51.03;;;19.38;;
22705;SDS011;11520;51.198;4.468;2023-01-26T09:26:33;62.28;;;19.35;;
22705;SDS011;11520;51.198;4.468;2023-01-26T09:31:27;61.53;;;20.35;;
22705;SDS011;11520;51.198;4.468;2023-01-26T09:33:53;58.00;;;20.35;;
22705;SDS011;11520;51.198;4.468;2023-01-26T09:36:20;61.28;;;20.20;;
22705;SDS011;11520;51.198;4.468;2023-01-26T09:38:45;54.55;;;20.25;;
22705;SDS011;11520;51.198;4.468;2023-01-26T09:43:59;58.95;;;19.92;;
22705;SDS011;11520;51.198;4.468;2023-01-26T09:49:05;64.40;;;20.60;;
22705;SDS011;11520;51.198;4.468;2023-01-26T09:51:37;62.90;;;20.10;;
22705;SDS011;11520;51.198;4.468;2023-01-26T09:56:52;61.58;;;21.00;;
22705;SDS011;11520;51.198;4.468;2023-01-26T10:04:42;60.75;;;19.92;;
22705;SDS011;11520;51.198;4.468;2023-01-26T10:07:18;51.53;;;17.42;;
22705;SDS011;11520;51.198;4.468;2023-01-26T10:09:47;58.72;;;19.50;;
22705;SDS011;11520;51.198;4.468;2023-01-26T10:12:16;56.08;;;18.40;;
22705;SDS011;11520;51.198;4.468;2023-01-26T10:14:58;56.08;;;17.50;;
22705;SDS011;11520;51.198;4.468;2023-01-26T10:17:44;54.05;;;16.05;;
22705;SDS011;11520;51.198;4.468;2023-01-26T10:22:56;54.80;;;17.33;;
22705;SDS011;11520;51.198;4.468;2023-01-26T10:25:35;43.92;;;15.80;;
22705;SDS011;11520;51.198;4.468;2023-01-26T10:28:10;50.60;;;19.15;;
22705;SDS011;11520;51.198;4.468;2023-01-26T10:30:45;51.08;;;16.70;;
22705;SDS011;11520;51.198;4.468;2023-01-26T10:35:52;45.25;;;16.88;;
22705;SDS011;11520;51.198;4.468;2023-01-26T10:38:37;49.58;;;15.95;;
22705;SDS011;11520;51.198;4.468;2023-01-26T10:41:05;49.40;;;16.23;;
22705;SDS011;11520;51.198;4.468;2023-01-26T10:43:51;49.70;;;15.50;;
22705;SDS011;11520;51.198;4.468;2023-01-26T10:46:27;54.03;;;16.63;;
22705;SDS011;11520;51.198;4.468;2023-01-26T10:49:01;43.55;;;14.52;;
22705;SDS011;11520;51.198;4.468;2023-01-26T10:51:42;41.72;;;13.57;;
22705;SDS011;11520;51.198;4.468;2023-01-26T10:54:20;44.63;;;13.75;;
22705;SDS011;11520;51.198;4.468;2023-01-26T11:02:37;40.63;;;12.45;;
22705;SDS011;11520;51.198;4.468;2023-01-26T11:04:38;45.53;;;12.75;;
22705;SDS011;11520;51.198;4.468;2023-01-26T11:09:50;33.05;;;9.75;;
22705;SDS011;11520;51.198;4.468;2023-01-26T11:12:17;34.60;;;10.40;;
22705;SDS011;11520;51.198;4.468;2023-01-26T11:15:05;41.47;;;10.95;;
22705;SDS011;11520;51.198;4.468;2023-01-26T11:17:44;42.00;;;10.02;;
22705;SDS011;11520;51.198;4.468;2023-01-26T11:23:14;32.60;;;9.50;;
22705;SDS011;11520;51.198;4.468;2023-01-26T11:34:28;23.45;;;7.10;;
22705;SDS011;11520;51.198;4.468;2023-01-26T12:00:57;22.60;;;5.82;;
22705;SDS011;11520;51.198;4.468;2023-01-26T12:06:44;26.00;;;5.22;;
22705;SDS011;11520;51.198;4.468;2023-01-26T12:12:10;27.98;;;6.20;;
22705;SDS011;11520;51.198;4.468;2023-01-26T12:17:55;22.17;;;4.20;;
22705;SDS011;11520;51.198;4.468;2023-01-26T12:20:35;20.38;;;4.63;;
22705;SDS011;11520;51.198;4.468;2023-01-26T12:23:09;24.33;;;4.85;;
22705;SDS011;11520;51.198;4.468;2023-01-26T12:25:45;19.30;;;3.60;;
22705;SDS011;11520;51.198;4.468;2023-01-26T12:28:28;17.98;;;3.72;;
22705;SDS011;11520;51.198;4.468;2023-01-26T12:31:19;23.52;;;3.33;;
22705;SDS011;11520;51.198;4.468;2023-01-26T12:34:07;14.30;;;3.30;;
22705;SDS011;11520;51.198;4.468;2023-01-26T12:39:34;18.35;;;2.80;;
22705;SDS011;11520;51.198;4.468;2023-01-26T12:44:56;26.05;;;3.25;;
22705;SDS011;11520;51.198;4.468;2023-01-26T12:49:59;21.45;;;3.28;;
22705;SDS011;11520;51.198;4.468;2023-01-26T12:55:11;12.23;;;2.28;;
22705;SDS011;11520;51.198;4.468;2023-01-26T12:57:41;19.05;;;2.80;;
22705;SDS011;11520;51.198;4.468;2023-01-26T13:00:21;14.23;;;2.85;;
22705;SDS011;11520;51.198;4.468;2023-01-26T13:02:51;18.90;;;2.80;;
22705;SDS011;11520;51.198;4.468;2023-01-26T13:05:23;14.18;;;2.72;;
22705;SDS011;11520;51.198;4.468;2023-01-26T13:07:55;23.05;;;4.70;;
22705;SDS011;11520;51.198;4.468;2023-01-26T13:10:22;21.00;;;3.75;;
22705;SDS011;11520;51.198;4.468;2023-01-26T13:15:20;21.08;;;3.55;;
22705;SDS011;11520;51.198;4.468;2023-01-26T13:17:53;23.00;;;3.47;;
22705;SDS011;11520;51.198;4.468;2023-01-26T13:20:39;15.88;;;3.10;;
22705;SDS011;11520;51.198;4.468;2023-01-26T13:26:18;17.50;;;3.10;;
22705;SDS011;11520;51.198;4.468;2023-01-26T13:31:27;16.10;;;3.17;;
22705;SDS011;11520;51.198;4.468;2023-01-26T13:33:58;12.65;;;2.72;;
22705;SDS011;11520;51.198;4.468;2023-01-26T13:36:31;19.20;;;3.50;;
22705;SDS011;11520;51.198;4.468;2023-01-26T13:39:10;18.80;;;3.38;;
22705;SDS011;11520;51.198;4.468;2023-01-26T13:42:00;16.52;;;2.90;;
22705;SDS011;11520;51.198;4.468;2023-01-26T13:44:47;13.65;;;2.45;;
22705;SDS011;11520;51.198;4.468;2023-01-26T13:47:24;24.50;;;2.92;;
22705;SDS011;11520;51.198;4.468;2023-01-26T13:52:25;19.35;;;3.28;;
22705;SDS011;11520;51.198;4.468;2023-01-26T13:54:52;18.70;;;2.80;;
22705;SDS011;11520;51.198;4.468;2023-01-26T13:59:53;21.35;;;2.92;;
22705;SDS011;11520;51.198;4.468;2023-01-26T14:02:25;16.48;;;2.83;;
22705;SDS011;11520;51.198;4.468;2023-01-26T14:04:55;15.88;;;2.65;;
22705;SDS011;11520;51.198;4.468;2023-01-26T14:07:26;15.90;;;2.60;;
22705;SDS011;11520;51.198;4.468;2023-01-26T14:09:55;19.48;;;2.75;;
22705;SDS011;11520;51.198;4.468;2023-01-26T14:12:25;20.13;;;3.05;;
22705;SDS011;11520;51.198;4.468;2023-01-26T14:14:58;17.38;;;2.53;;
22705;SDS011;11520;51.198;4.468;2023-01-26T14:17:29;12.70;;;2.20;;
22705;SDS011;11520;51.198;4.468;2023-01-26T14:19:58;11.98;;;2.63;;
22705;SDS011;11520;51.198;4.468;2023-01-26T14:22:27;14.57;;;1.73;;
22705;SDS011;11520;51.198;4.468;2023-01-26T14:24:54;19.08;;;2.42;;
22705;SDS011;11520;51.198;4.468;2023-01-26T14:33:02;14.07;;;2.35;;
22705;SDS011;11520;51.198;4.468;2023-01-26T14:35:39;13.00;;;2.28;;
22705;SDS011;11520;51.198;4.468;2023-01-26T14:40:45;14.60;;;2.80;;
22705;SDS011;11520;51.198;4.468;2023-01-26T14:43:19;17.42;;;2.38;;
22705;SDS011;11520;51.198;4.468;2023-01-26T14:45:49;13.90;;;2.95;;
22705;SDS011;11520;51.198;4.468;2023-01-26T14:48:28;17.83;;;3.42;;
22705;SDS011;11520;51.198;4.468;2023-01-26T14:50:58;18.70;;;3.13;;
22705;SDS011;11520;51.198;4.468;2023-01-26T14:53:24;12.88;;;2.47;;
22705;SDS011;11520;51.198;4.468;2023-01-26T14:55:51;22.08;;;2.88;;
22705;SDS011;11520;51.198;4.468;2023-01-26T14:58:28;15.10;;;3.35;;
22705;SDS011;11520;51.198;4.468;2023-01-26T15:00:56;15.75;;;4.43;;
22705;SDS011;11520;51.198;4.468;2023-01-26T15:09:04;18.30;;;3.75;;
22705;SDS011;11520;51.198;4.468;2023-01-26T15:11:36;10.73;;;2.30;;
22705;SDS011;11520;51.198;4.468;2023-01-26T15:14:34;13.05;;;1.98;;
22705;SDS011;11520;51.198;4.468;2023-01-26T15:22:40;19.77;;;2.22;;
22705;SDS011;11520;51.198;4.468;2023-01-26T15:25:16;6.63;;;1.83;;
22705;SDS011;11520;51.198;4.468;2023-01-26T15:27:53;12.27;;;2.05;;
22705;SDS011;11520;51.198;4.468;2023-01-26T15:30:33;9.27;;;1.55;;
22705;SDS011;11520;51.198;4.468;2023-01-26T15:33:00;14.88;;;1.63;;
22705;SDS011;11520;51.198;4.468;2023-01-26T15:35:31;8.38;;;1.63;;
22705;SDS011;11520;51.198;4.468;2023-01-26T15:37:59;9.07;;;1.37;;
22705;SDS011;11520;51.198;4.468;2023-01-26T15:40:36;13.15;;;2.45;;
22705;SDS011;11520;51.198;4.468;2023-01-26T15:43:12;11.07;;;1.95;;
22705;SDS011;11520;51.198;4.468;2023-01-26T15:45:40;10.02;;;1.52;;
22705;SDS011;11520;51.198;4.468;2023-01-26T15:48:12;5.68;;;1.15;;
22705;SDS011;11520;51.198;4.468;2023-01-26T15:50:41;6.35;;;1.20;;
22705;SDS011;11520;51.198;4.468;2023-01-26T15:53:10;3.95;;;1.13;;
22705;SDS011;11520;51.198;4.468;2023-01-26T15:55:40;9.52;;;1.10;;
22705;SDS011;11520;51.198;4.468;2023-01-26T15:58:07;8.32;;;1.40;;
22705;SDS011;11520;51.198;4.468;2023-01-26T16:00:34;7.53;;;1.70;;
22705;SDS011;11520;51.198;4.468;2023-01-26T16:03:06;7.65;;;1.45;;
22705;SDS011;11520;51.198;4.468;2023-01-26T16:05:38;5.97;;;1.60;;
22705;SDS011;11520;51.198;4.468;2023-01-26T16:08:07;7.95;;;1.02;;
22705;SDS011;11520;51.198;4.468;2023-01-26T16:10:38;11.15;;;1.83;;
22705;SDS011;11520;51.198;4.468;2023-01-26T16:13:07;9.23;;;1.60;;
22705;SDS011;11520;51.198;4.468;2023-01-26T16:15:39;6.97;;;1.75;;
22705;SDS011;11520;51.198;4.468;2023-01-26T16:18:07;7.93;;;1.90;;
22705;SDS011;11520;51.198;4.468;2023-01-26T16:20:33;10.00;;;2.63;;
22705;SDS011;11520;51.198;4.468;2023-01-26T16:23:01;8.95;;;2.58;;
22705;SDS011;11520;51.198;4.468;2023-01-26T16:25:28;12.40;;;3.05;;
22705;SDS011;11520;51.198;4.468;2023-01-26T16:27:55;10.80;;;2.67;;
22705;SDS011;11520;51.198;4.468;2023-01-26T16:30:22;8.85;;;2.60;;
22705;SDS011;11520;51.198;4.468;2023-01-26T16:32:49;10.60;;;2.33;;
22705;SDS011;11520;51.198;4.468;2023-01-26T16:35:19;22.30;;;3.70;;
22705;SDS011;11520;51.198;4.468;2023-01-26T16:37:46;8.60;;;2.40;;
22705;SDS011;11520;51.198;4.468;2023-01-26T16:40:13;9.18;;;2.67;;
22705;SDS011;11520;51.198;4.468;2023-01-26T16:42:44;10.00;;;2.40;;
22705;SDS011;11520;51.198;4.468;2023-01-26T16:45:16;13.23;;;3.30;;
22705;SDS011;11520;51.198;4.468;2023-01-26T16:47:47;13.38;;;2.50;;
22705;SDS011;11520;51.198;4.468;2023-01-26T16:50:16;16.35;;;2.72;;
22705;SDS011;11520;51.198;4.468;2023-01-26T16:52:44;11.98;;;2.38;;
22705;SDS011;11520;51.198;4.468;2023-01-26T16:55:11;9.65;;;2.30;;
22705;SDS011;11520;51.198;4.468;2023-01-26T16:57:41;7.68;;;1.52;;
22705;SDS011;11520;51.198;4.468;2023-01-26T17:00:18;14.05;;;2.03;;